SLES weather

Estalsa Airport
Poopo, Oruro Department, Bolivia

Public forecast

Using degrees Celsius for public forecast. Weather courtesy of forecast.io.

METAR (pilot weather report)

Closest report is Juan Mendoza Airport, 30.6 nm (56.8 km) NNW. Retrieved 2019/03/26 17:00 UTC (57 minutes ago):

SLOR 261700Z 07010KT 9999 SCT020 15/05 Q1034

TAF (pilot weather forecast)

Forecast is more than 12 hours old.

Closest forecast is Juan Mendoza Airport, 30.6 nm (56.8 km) NNW. Retrieved 2018/10/09 18:12 UTC (6 months ago):

TAF COR TAF SLOR 091600Z 0918/1018 22012KT 9999 SCT020 FEW023CB TX20/0920Z TN01/1010Z BECMG 0923/1001 04006KT NSC BECMG 1012/1014 32010KT